Aviation Digital Data Service (ADDS)

Output produced by METARs form (1811 UTC 20 January 2019)
found at http://www.aviationweather.gov/metar/data/
 
TAF HADR 201530Z 2018/2124 36005KT C A V O K 
     BECMG 2023/2105 27004KT SCT030
       
HAAB 201800Z 06010KT 9999 FEW030 17/05 Q1029
TAF HAAB 201530Z 2018/2124 09005KT 9999 FEW030 FEW090 
     BECMG 2012/2018 09010KT